Newark, Texas
Current Conditions -  °F | °C
As of 3:53 PM on Thursday 23 Oct 2014 (Local Time) from KAFW Reporting Station
Scattered Clouds Scattered Clouds  
Wind Chill: 80°   Ceiling: Unl
Heat Index: 80°   Visibility: 10mi
Dew Point: 57°   Wind: 6mph
Humidity: 45%   Direction: 190°S
Pressure: 30.06"   Gusts: NA
Location:  33°N, 97.48°W
Report Text: KAFW 232053Z 19005KT 10SM FEW050 FEW075 SCT300 27/14 A3006 RMK AO2 SLP169 T02670139 56024 $
Loading
Personal Weather Stations






























Interactive Weather Map
Tropical Storm Tracking
New forecast layout! Learn more

10-Day Weather Forecast

Advertisements
Track Severe Weather on mobile